sensor_id;sensor_type;location;lat;lon;timestamp;pressure;altitude;pressure_sealevel;temperature;humidity
21826;BME280;11075;47.944;11.776;2022-09-01T00:00:00;94921.38;;;21.50;26.87
21826;BME280;11075;47.944;11.776;2022-09-01T00:02:31;94932.47;;;21.28;26.88
21826;BME280;11075;47.944;11.776;2022-09-01T00:04:59;94906.81;;;19.82;29.08
21826;BME280;11075;47.944;11.776;2022-09-01T00:07:28;94929.22;;;20.78;27.66
21826;BME280;11075;47.944;11.776;2022-09-01T00:09:57;94915.78;;;19.64;29.34
21826;BME280;11075;47.944;11.776;2022-09-01T00:12:25;94930.22;;;19.65;29.45
21826;BME280;11075;47.944;11.776;2022-09-01T00:14:53;94898.84;;;18.70;30.52
21826;BME280;11075;47.944;11.776;2022-09-01T00:17:20;94928.88;;;20.65;27.60
21826;BME280;11075;47.944;11.776;2022-09-01T00:19:47;94936.81;;;21.78;26.39
21826;BME280;11075;47.944;11.776;2022-09-01T00:22:14;94910.19;;;20.50;27.82
21826;BME280;11075;47.944;11.776;2022-09-01T00:24:41;94924.63;;;21.86;26.19
21826;BME280;11075;47.944;11.776;2022-09-01T00:27:08;94924.16;;;21.95;26.23
21826;BME280;11075;47.944;11.776;2022-09-01T00:29:35;94907.56;;;21.09;26.95
21826;BME280;11075;47.944;11.776;2022-09-01T00:32:02;94943.13;;;23.18;24.54
21826;BME280;11075;47.944;11.776;2022-09-01T00:34:30;94897.91;;;20.90;27.40
21826;BME280;11075;47.944;11.776;2022-09-01T00:36:57;94920.84;;;21.69;26.27
21826;BME280;11075;47.944;11.776;2022-09-01T00:39:24;94917.72;;;21.67;26.23
21826;BME280;11075;47.944;11.776;2022-09-01T00:41:50;94927.66;;;22.70;25.19
21826;BME280;11075;47.944;11.776;2022-09-01T00:44:20;94890.97;;;21.34;26.24
21826;BME280;11075;47.944;11.776;2022-09-01T00:46:56;94889.06;;;20.50;27.60
21826;BME280;11075;47.944;11.776;2022-09-01T00:52:23;94894.88;;;20.63;27.63
21826;BME280;11075;47.944;11.776;2022-09-01T00:54:56;94915.97;;;21.43;26.99
21826;BME280;11075;47.944;11.776;2022-09-01T00:57:25;94921.63;;;21.70;26.53
21826;BME280;11075;47.944;11.776;2022-09-01T01:00:00;94913.31;;;21.77;26.65
21826;BME280;11075;47.944;11.776;2022-09-01T01:02:28;94880.66;;;19.49;28.70
21826;BME280;11075;47.944;11.776;2022-09-01T01:04:55;94906.06;;;20.97;27.02
21826;BME280;11075;47.944;11.776;2022-09-01T01:07:26;94892.00;;;19.29;29.56
21826;BME280;11075;47.944;11.776;2022-09-01T01:09:54;94902.47;;;19.17;30.05
21826;BME280;11075;47.944;11.776;2022-09-01T01:12:21;94913.22;;;20.73;27.54
21826;BME280;11075;47.944;11.776;2022-09-01T01:14:49;94901.31;;;19.99;28.65
21826;BME280;11075;47.944;11.776;2022-09-01T01:17:20;94898.22;;;19.55;29.11
21826;BME280;11075;47.944;11.776;2022-09-01T01:19:53;94926.16;;;21.39;27.18
21826;BME280;11075;47.944;11.776;2022-09-01T01:28:22;94924.50;;;23.02;25.00
21826;BME280;11075;47.944;11.776;2022-09-01T01:30:54;94887.97;;;21.14;26.67
21826;BME280;11075;47.944;11.776;2022-09-01T01:33:32;94918.50;;;22.84;25.00
21826;BME280;11075;47.944;11.776;2022-09-01T01:36:00;94920.16;;;23.59;24.41
21826;BME280;11075;47.944;11.776;2022-09-01T01:38:28;94857.91;;;20.19;28.58
21826;BME280;11075;47.944;11.776;2022-09-01T01:40:56;94883.78;;;20.95;27.71
21826;BME280;11075;47.944;11.776;2022-09-01T01:43:24;94888.91;;;20.86;27.01
21826;BME280;11075;47.944;11.776;2022-09-01T01:45:55;94879.91;;;20.89;27.79
21826;BME280;11075;47.944;11.776;2022-09-01T01:48:29;94846.69;;;18.89;29.43
21826;BME280;11075;47.944;11.776;2022-09-01T01:51:01;94848.31;;;18.03;30.90
21826;BME280;11075;47.944;11.776;2022-09-01T01:53:28;94896.53;;;21.19;27.08
21826;BME280;11075;47.944;11.776;2022-09-01T01:55:56;94900.72;;;21.86;26.35
21826;BME280;11075;47.944;11.776;2022-09-01T01:58:27;94892.97;;;21.74;26.29
21826;BME280;11075;47.944;11.776;2022-09-01T02:00:55;94903.91;;;21.78;26.05
21826;BME280;11075;47.944;11.776;2022-09-01T02:03:25;94884.72;;;21.33;27.01
21826;BME280;11075;47.944;11.776;2022-09-01T02:05:54;94875.81;;;20.45;27.50
21826;BME280;11075;47.944;11.776;2022-09-01T02:08:23;94895.56;;;20.88;27.24
21826;BME280;11075;47.944;11.776;2022-09-01T02:10:53;94881.69;;;20.40;28.34
21826;BME280;11075;47.944;11.776;2022-09-01T02:13:22;94888.53;;;20.84;27.57
21826;BME280;11075;47.944;11.776;2022-09-01T02:15:54;94883.53;;;20.64;27.73
21826;BME280;11075;47.944;11.776;2022-09-01T02:18:23;94935.50;;;23.33;24.26
21826;BME280;11075;47.944;11.776;2022-09-01T02:20:51;94904.94;;;21.50;26.24
21826;BME280;11075;47.944;11.776;2022-09-01T02:23:20;94896.63;;;21.60;26.05
21826;BME280;11075;47.944;11.776;2022-09-01T02:25:56;94905.00;;;21.91;25.23
21826;BME280;11075;47.944;11.776;2022-09-01T02:28:46;94898.91;;;21.69;25.78
21826;BME280;11075;47.944;11.776;2022-09-01T02:31:25;94909.28;;;22.33;24.87
21826;BME280;11075;47.944;11.776;2022-09-01T02:33:56;94905.31;;;21.97;25.65
21826;BME280;11075;47.944;11.776;2022-09-01T02:36:23;94869.72;;;19.63;27.75
21826;BME280;11075;47.944;11.776;2022-09-01T02:38:52;94902.22;;;21.95;25.61
21826;BME280;11075;47.944;11.776;2022-09-01T02:41:23;94907.19;;;22.07;25.29
21826;BME280;11075;47.944;11.776;2022-09-01T02:43:53;94894.91;;;21.25;26.41
21826;BME280;11075;47.944;11.776;2022-09-01T02:46:20;94905.03;;;21.39;26.22
21826;BME280;11075;47.944;11.776;2022-09-01T02:48:51;94892.47;;;20.76;26.84
21826;BME280;11075;47.944;11.776;2022-09-01T02:51:21;94914.34;;;21.97;25.28
21826;BME280;11075;47.944;11.776;2022-09-01T02:53:48;94881.69;;;20.40;26.46
21826;BME280;11075;47.944;11.776;2022-09-01T02:56:23;94860.72;;;18.95;28.50
21826;BME280;11075;47.944;11.776;2022-09-01T02:58:53;94917.97;;;22.28;25.12
21826;BME280;11075;47.944;11.776;2022-09-01T03:01:24;94920.41;;;22.87;24.02
21826;BME280;11075;47.944;11.776;2022-09-01T03:03:55;94904.44;;;22.07;24.66
21826;BME280;11075;47.944;11.776;2022-09-01T03:06:23;94898.66;;;21.53;25.11
21826;BME280;11075;47.944;11.776;2022-09-01T03:08:52;94900.75;;;21.83;25.04
21826;BME280;11075;47.944;11.776;2022-09-01T03:11:21;94864.66;;;19.51;27.49
21826;BME280;11075;47.944;11.776;2022-09-01T03:13:50;94861.53;;;19.13;28.13
21826;BME280;11075;47.944;11.776;2022-09-01T03:16:17;94878.22;;;20.15;26.48
21826;BME280;11075;47.944;11.776;2022-09-01T03:18:44;94879.53;;;20.80;26.03
21826;BME280;11075;47.944;11.776;2022-09-01T03:21:11;94859.16;;;18.94;28.17
21826;BME280;11075;47.944;11.776;2022-09-01T03:23:44;94881.78;;;20.05;26.99
21826;BME280;11075;47.944;11.776;2022-09-01T03:26:12;94888.22;;;20.67;25.53
21826;BME280;11075;47.944;11.776;2022-09-01T03:28:40;94921.03;;;22.68;23.76
21826;BME280;11075;47.944;11.776;2022-09-01T03:31:07;94866.97;;;19.91;26.72
21826;BME280;11075;47.944;11.776;2022-09-01T03:33:35;94851.72;;;18.77;27.67
21826;BME280;11075;47.944;11.776;2022-09-01T03:36:04;94867.38;;;19.22;27.44
21826;BME280;11075;47.944;11.776;2022-09-01T03:38:41;94881.03;;;19.86;26.73
21826;BME280;11075;47.944;11.776;2022-09-01T03:41:10;94887.13;;;20.47;26.07
21826;BME280;11075;47.944;11.776;2022-09-01T03:43:39;94910.47;;;21.91;24.47
21826;BME280;11075;47.944;11.776;2022-09-01T03:46:14;94881.16;;;20.70;25.20
21826;BME280;11075;47.944;11.776;2022-09-01T03:48:49;94869.34;;;19.54;26.69
21826;BME280;11075;47.944;11.776;2022-09-01T03:51:18;94883.16;;;21.28;24.33
21826;BME280;11075;47.944;11.776;2022-09-01T03:53:47;94868.41;;;20.28;25.89
21826;BME280;11075;47.944;11.776;2022-09-01T03:56:14;94886.28;;;21.79;24.59
21826;BME280;11075;47.944;11.776;2022-09-01T03:58:41;94858.56;;;20.52;25.24
21826;BME280;11075;47.944;11.776;2022-09-01T04:01:15;94889.16;;;22.06;23.61
21826;BME280;11075;47.944;11.776;2022-09-01T04:03:43;94870.16;;;20.81;24.90
21826;BME280;11075;47.944;11.776;2022-09-01T04:06:15;94844.31;;;19.94;26.19
21826;BME280;11075;47.944;11.776;2022-09-01T04:08:45;94863.69;;;20.46;25.23
21826;BME280;11075;47.944;11.776;2022-09-01T04:11:15;94831.81;;;18.76;27.34
21826;BME280;11075;47.944;11.776;2022-09-01T04:13:46;94880.72;;;21.45;24.63
21826;BME280;11075;47.944;11.776;2022-09-01T04:16:22;94894.00;;;21.95;23.86
21826;BME280;11075;47.944;11.776;2022-09-01T04:19:08;94879.97;;;21.41;24.59
21826;BME280;11075;47.944;11.776;2022-09-01T04:21:43;94881.19;;;21.81;23.86
21826;BME280;11075;47.944;11.776;2022-09-01T04:24:12;94833.47;;;19.34;26.63
21826;BME280;11075;47.944;11.776;2022-09-01T04:26:42;94820.94;;;18.83;27.95
21826;BME280;11075;47.944;11.776;2022-09-01T04:29:14;94806.81;;;17.66;29.32
21826;BME280;11075;47.944;11.776;2022-09-01T04:31:45;94847.09;;;19.16;27.19
21826;BME280;11075;47.944;11.776;2022-09-01T04:34:20;94841.53;;;18.59;27.62
21826;BME280;11075;47.944;11.776;2022-09-01T04:36:48;94828.97;;;18.26;28.28
21826;BME280;11075;47.944;11.776;2022-09-01T04:39:21;94871.19;;;20.21;26.02
21826;BME280;11075;47.944;11.776;2022-09-01T04:41:49;94861.56;;;19.42;26.92
21826;BME280;11075;47.944;11.776;2022-09-01T04:44:17;94870.88;;;19.90;26.19
21826;BME280;11075;47.944;11.776;2022-09-01T04:46:45;94848.13;;;18.51;28.01
21826;BME280;11075;47.944;11.776;2022-09-01T04:49:16;94846.91;;;18.31;28.48
21826;BME280;11075;47.944;11.776;2022-09-01T04:51:48;94869.72;;;19.59;26.91
21826;BME280;11075;47.944;11.776;2022-09-01T04:54:20;94852.56;;;19.62;26.93
21826;BME280;11075;47.944;11.776;2022-09-01T04:56:49;94842.59;;;18.26;28.25
21826;BME280;11075;47.944;11.776;2022-09-01T04:59:20;94853.34;;;19.20;27.71
21826;BME280;11075;47.944;11.776;2022-09-01T05:01:52;94859.88;;;18.73;28.25
21826;BME280;11075;47.944;11.776;2022-09-01T05:04:26;94882.88;;;20.25;26.05
21826;BME280;11075;47.944;11.776;2022-09-01T05:06:55;94869.22;;;20.32;26.56
21826;BME280;11075;47.944;11.776;2022-09-01T05:09:34;94870.38;;;20.38;26.06
21826;BME280;11075;47.944;11.776;2022-09-01T05:12:10;94857.22;;;19.87;26.94
21826;BME280;11075;47.944;11.776;2022-09-01T05:14:45;94875.94;;;20.97;25.70
21826;BME280;11075;47.944;11.776;2022-09-01T05:17:18;94838.88;;;18.88;28.56
21826;BME280;11075;47.944;11.776;2022-09-01T05:19:47;94878.00;;;20.82;25.72
21826;BME280;11075;47.944;11.776;2022-09-01T05:22:17;94886.84;;;21.04;25.50
21826;BME280;11075;47.944;11.776;2022-09-01T05:25:01;94868.78;;;20.44;26.48
21826;BME280;11075;47.944;11.776;2022-09-01T05:27:40;94884.69;;;20.67;25.33
21826;BME280;11075;47.944;11.776;2022-09-01T05:30:08;94853.16;;;20.41;26.44
21826;BME280;11075;47.944;11.776;2022-09-01T05:32:35;94880.91;;;21.68;24.96
21826;BME280;11075;47.944;11.776;2022-09-01T05:35:03;94865.28;;;20.37;26.40
21826;BME280;11075;47.944;11.776;2022-09-01T05:37:37;94889.38;;;21.36;24.51
21826;BME280;11075;47.944;11.776;2022-09-01T05:40:05;94827.69;;;18.09;29.43
21826;BME280;11075;47.944;11.776;2022-09-01T05:42:34;94867.31;;;20.08;26.66
21826;BME280;11075;47.944;11.776;2022-09-01T05:45:04;94870.28;;;20.56;26.00
21826;BME280;11075;47.944;11.776;2022-09-01T05:47:32;94867.34;;;18.94;27.40
21826;BME280;11075;47.944;11.776;2022-09-01T05:50:03;94851.66;;;18.55;27.96
21826;BME280;11075;47.944;11.776;2022-09-01T05:52:32;94864.66;;;19.61;27.41
21826;BME280;11075;47.944;11.776;2022-09-01T05:54:59;94879.06;;;19.94;26.72
21826;BME280;11075;47.944;11.776;2022-09-01T05:57:27;94859.19;;;19.19;27.67
21826;BME280;11075;47.944;11.776;2022-09-01T06:00:06;94854.38;;;18.55;28.49
21826;BME280;11075;47.944;11.776;2022-09-01T06:02:41;94865.25;;;18.48;28.57
21826;BME280;11075;47.944;11.776;2022-09-01T06:05:13;94859.66;;;18.12;29.09
21826;BME280;11075;47.944;11.776;2022-09-01T06:07:42;94875.94;;;19.99;27.02
21826;BME280;11075;47.944;11.776;2022-09-01T06:10:12;94848.72;;;18.05;28.96
21826;BME280;11075;47.944;11.776;2022-09-01T06:12:40;94869.69;;;18.95;28.19
21826;BME280;11075;47.944;11.776;2022-09-01T06:15:15;94840.66;;;17.61;30.00
21826;BME280;11075;47.944;11.776;2022-09-01T06:17:48;94882.63;;;19.30;27.51
21826;BME280;11075;47.944;11.776;2022-09-01T06:20:16;94858.28;;;17.78;29.19
21826;BME280;11075;47.944;11.776;2022-09-01T06:22:45;94845.47;;;16.87;30.52
21826;BME280;11075;47.944;11.776;2022-09-01T06:25:18;94868.91;;;17.97;30.03
21826;BME280;11075;47.944;11.776;2022-09-01T06:27:46;94889.44;;;18.53;28.20
21826;BME280;11075;47.944;11.776;2022-09-01T06:30:16;94897.78;;;19.03;28.14
21826;BME280;11075;47.944;11.776;2022-09-01T06:33:12;94877.75;;;18.56;29.10
21826;BME280;11075;47.944;11.776;2022-09-01T06:35:45;94917.97;;;20.55;26.28
21826;BME280;11075;47.944;11.776;2022-09-01T06:38:15;94865.47;;;18.07;29.06
21826;BME280;11075;47.944;11.776;2022-09-01T06:40:45;94888.47;;;19.71;26.94
21826;BME280;11075;47.944;11.776;2022-09-01T06:43:17;94899.41;;;19.86;26.86
21826;BME280;11075;47.944;11.776;2022-09-01T06:45:47;94884.47;;;18.77;28.21
21826;BME280;11075;47.944;11.776;2022-09-01T06:48:23;94896.28;;;19.41;27.35
21826;BME280;11075;47.944;11.776;2022-09-01T06:51:00;94887.81;;;18.38;28.85
21826;BME280;11075;47.944;11.776;2022-09-01T06:53:50;94907.91;;;18.92;28.08
21826;BME280;11075;47.944;11.776;2022-09-01T06:56:26;94894.63;;;18.90;28.00
21826;BME280;11075;47.944;11.776;2022-09-01T06:59:00;94919.94;;;20.51;26.37
21826;BME280;11075;47.944;11.776;2022-09-01T07:01:33;94877.09;;;18.01;29.51
21826;BME280;11075;47.944;11.776;2022-09-01T07:04:01;94913.81;;;20.04;27.13
21826;BME280;11075;47.944;11.776;2022-09-01T07:06:47;94921.75;;;20.93;26.20
21826;BME280;11075;47.944;11.776;2022-09-01T07:09:45;94918.94;;;21.04;25.74
21826;BME280;11075;47.944;11.776;2022-09-01T07:12:38;94909.47;;;21.71;25.54
21826;BME280;11075;47.944;11.776;2022-09-01T07:15:29;94893.56;;;19.37;27.62
21826;BME280;11075;47.944;11.776;2022-09-01T07:18:19;94906.94;;;20.73;26.23
21826;BME280;11075;47.944;11.776;2022-09-01T07:20:47;94933.56;;;22.69;24.38
21826;BME280;11075;47.944;11.776;2022-09-01T07:23:35;94904.25;;;20.65;26.20
21826;BME280;11075;47.944;11.776;2022-09-01T07:26:25;94927.97;;;22.04;24.86
21826;BME280;11075;47.944;11.776;2022-09-01T07:28:52;94884.94;;;19.25;28.05
21826;BME280;11075;47.944;11.776;2022-09-01T07:31:31;94876.72;;;18.93;28.65
21826;BME280;11075;47.944;11.776;2022-09-01T07:34:20;94875.91;;;18.78;28.71
21826;BME280;11075;47.944;11.776;2022-09-01T07:37:07;94928.16;;;21.35;25.91
21826;BME280;11075;47.944;11.776;2022-09-01T07:39:54;94905.22;;;20.02;27.01
21826;BME280;11075;47.944;11.776;2022-09-01T07:43:15;94926.47;;;22.00;25.32
21826;BME280;11075;47.944;11.776;2022-09-01T07:46:07;94940.81;;;22.52;24.09
21826;BME280;11075;47.944;11.776;2022-09-01T07:48:55;94927.78;;;21.84;25.11
21826;BME280;11075;47.944;11.776;2022-09-01T07:51:43;94920.91;;;21.03;25.89
21826;BME280;11075;47.944;11.776;2022-09-01T07:54:14;94908.78;;;21.59;25.52
21826;BME280;11075;47.944;11.776;2022-09-01T07:56:41;94886.13;;;19.34;28.15
21826;BME280;11075;47.944;11.776;2022-09-01T07:59:09;94904.84;;;19.79;27.23
21826;BME280;11075;47.944;11.776;2022-09-01T08:01:49;94941.25;;;21.02;25.51
21826;BME280;11075;47.944;11.776;2022-09-01T08:04:17;94930.75;;;20.86;26.24
21826;BME280;11075;47.944;11.776;2022-09-01T08:06:49;94934.34;;;21.94;25.33
21826;BME280;11075;47.944;11.776;2022-09-01T08:09:16;94934.88;;;21.19;25.30
21826;BME280;11075;47.944;11.776;2022-09-01T08:12:05;94937.09;;;21.94;24.40
21826;BME280;11075;47.944;11.776;2022-09-01T08:14:37;94955.97;;;22.64;23.67
21826;BME280;11075;47.944;11.776;2022-09-01T08:17:04;94904.78;;;20.21;26.53
21826;BME280;11075;47.944;11.776;2022-09-01T08:19:52;94951.94;;;23.06;23.72
21826;BME280;11075;47.944;11.776;2022-09-01T08:22:39;94949.69;;;22.29;24.21
21826;BME280;11075;47.944;11.776;2022-09-01T08:25:15;94947.97;;;22.80;23.45
21826;BME280;11075;47.944;11.776;2022-09-01T08:27:47;94937.44;;;22.00;24.77
21826;BME280;11075;47.944;11.776;2022-09-01T08:30:14;94969.81;;;24.85;22.43
21826;BME280;11075;47.944;11.776;2022-09-01T08:32:43;94959.72;;;24.15;23.04
21826;BME280;11075;47.944;11.776;2022-09-01T08:35:11;94921.19;;;22.16;25.21
21826;BME280;11075;47.944;11.776;2022-09-01T08:37:38;94962.19;;;23.59;22.78
21826;BME280;11075;47.944;11.776;2022-09-01T08:40:07;94949.97;;;23.06;23.92
21826;BME280;11075;47.944;11.776;2022-09-01T08:42:55;94913.00;;;20.21;26.21
21826;BME280;11075;47.944;11.776;2022-09-01T08:45:49;94922.63;;;20.69;26.09
21826;BME280;11075;47.944;11.776;2022-09-01T08:48:40;94949.75;;;22.22;24.61
21826;BME280;11075;47.944;11.776;2022-09-01T08:51:50;94932.00;;;20.67;25.64
21826;BME280;11075;47.944;11.776;2022-09-01T08:54:44;94963.47;;;24.01;22.96
21826;BME280;11075;47.944;11.776;2022-09-01T08:57:31;94958.88;;;23.71;23.54
21826;BME280;11075;47.944;11.776;2022-09-01T09:00:19;94959.88;;;24.91;22.71
21826;BME280;11075;47.944;11.776;2022-09-01T09:06:04;94959.50;;;25.08;21.97
21826;BME280;11075;47.944;11.776;2022-09-01T09:14:14;94952.97;;;23.46;23.27
21826;BME280;11075;47.944;11.776;2022-09-01T09:16:49;94974.03;;;26.14;21.38
21826;BME280;11075;47.944;11.776;2022-09-01T09:19:40;94897.75;;;20.17;26.75
21826;BME280;11075;47.944;11.776;2022-09-01T09:22:15;94924.22;;;20.59;25.63
21826;BME280;11075;47.944;11.776;2022-09-01T09:24:49;94951.31;;;23.22;23.88
21826;BME280;11075;47.944;11.776;2022-09-01T09:27:27;94906.44;;;19.51;26.17
21826;BME280;11075;47.944;11.776;2022-09-01T09:29:59;94928.66;;;22.15;24.81
21826;BME280;11075;47.944;11.776;2022-09-01T09:32:44;94968.53;;;25.45;21.56
21826;BME280;11075;47.944;11.776;2022-09-01T09:35:41;94972.16;;;23.76;22.54
21826;BME280;11075;47.944;11.776;2022-09-01T09:41:20;94970.16;;;25.26;21.75
21826;BME280;11075;47.944;11.776;2022-09-01T09:44:26;94928.25;;;21.72;24.43
21826;BME280;11075;47.944;11.776;2022-09-01T09:46:54;94932.84;;;21.34;24.53
21826;BME280;11075;47.944;11.776;2022-09-01T09:49:29;94948.50;;;22.98;23.12
21826;BME280;11075;47.944;11.776;2022-09-01T09:54:56;94947.22;;;22.42;24.23
21826;BME280;11075;47.944;11.776;2022-09-01T09:57:23;94950.31;;;22.44;23.26
21826;BME280;11075;47.944;11.776;2022-09-01T09:59:56;94927.50;;;19.90;25.64
21826;BME280;11075;47.944;11.776;2022-09-01T10:04:54;94957.50;;;23.83;22.74
21826;BME280;11075;47.944;11.776;2022-09-01T10:07:35;94960.59;;;24.08;22.44
21826;BME280;11075;47.944;11.776;2022-09-01T10:10:07;94956.38;;;24.27;22.03
21826;BME280;11075;47.944;11.776;2022-09-01T10:12:52;94956.06;;;23.98;21.93
21826;BME280;11075;47.944;11.776;2022-09-01T10:15:25;94951.09;;;24.13;22.22
21826;BME280;11075;47.944;11.776;2022-09-01T10:17:54;94968.06;;;26.15;20.68
21826;BME280;11075;47.944;11.776;2022-09-01T10:20:57;94939.72;;;24.11;22.15
21826;BME280;11075;47.944;11.776;2022-09-01T10:23:29;94953.84;;;25.68;20.79
21826;BME280;11075;47.944;11.776;2022-09-01T10:26:05;94946.69;;;25.18;21.59
21826;BME280;11075;47.944;11.776;2022-09-01T10:29:03;94939.66;;;24.38;21.53
21826;BME280;11075;47.944;11.776;2022-09-01T10:31:26;94933.44;;;23.64;22.89
21826;BME280;11075;47.944;11.776;2022-09-01T10:34:01;94966.44;;;25.69;20.84
21826;BME280;11075;47.944;11.776;2022-09-01T10:36:33;94972.88;;;24.90;20.63
21826;BME280;11075;47.944;11.776;2022-09-01T10:39:03;94962.75;;;23.97;21.01
21826;BME280;11075;47.944;11.776;2022-09-01T10:41:52;94968.34;;;25.72;20.26
21826;BME280;11075;47.944;11.776;2022-09-01T10:44:31;94969.75;;;26.99;19.24
21826;BME280;11075;47.944;11.776;2022-09-01T10:47:25;94947.53;;;24.16;21.37
21826;BME280;11075;47.944;11.776;2022-09-01T10:50:00;94958.59;;;25.51;20.23
21826;BME280;11075;47.944;11.776;2022-09-01T10:55:22;94916.06;;;22.90;23.08
21826;BME280;11075;47.944;11.776;2022-09-01T10:58:14;94920.69;;;22.96;22.85
21826;BME280;11075;47.944;11.776;2022-09-01T11:01:05;94942.44;;;24.77;21.47
21826;BME280;11075;47.944;11.776;2022-09-01T11:03:56;94928.63;;;23.95;22.60
21826;BME280;11075;47.944;11.776;2022-09-01T11:09:30;94934.41;;;25.39;21.56
21826;BME280;11075;47.944;11.776;2022-09-01T11:15:01;94983.00;;;29.01;18.25
21826;BME280;11075;47.944;11.776;2022-09-01T11:18:13;94945.13;;;24.61;21.48
21826;BME280;11075;47.944;11.776;2022-09-01T11:20:44;94942.63;;;24.47;21.03
21826;BME280;11075;47.944;11.776;2022-09-01T11:23:25;94932.72;;;24.30;21.83
21826;BME280;11075;47.944;11.776;2022-09-01T11:26:00;94922.00;;;24.35;21.46
21826;BME280;11075;47.944;11.776;2022-09-01T11:28:45;94904.25;;;22.24;22.81
21826;BME280;11075;47.944;11.776;2022-09-01T11:31:25;94929.06;;;25.32;21.15
21826;BME280;11075;47.944;11.776;2022-09-01T11:36:29;94963.00;;;29.06;18.71
21826;BME280;11075;47.944;11.776;2022-09-01T11:39:33;94957.06;;;26.73;19.59
21826;BME280;11075;47.944;11.776;2022-09-01T11:42:08;94904.41;;;25.25;21.66
21826;BME280;11075;47.944;11.776;2022-09-01T11:44:57;94978.84;;;29.27;17.85
21826;BME280;11075;47.944;11.776;2022-09-01T11:47:35;94939.22;;;26.32;20.30
21826;BME280;11075;47.944;11.776;2022-09-01T11:50:28;94925.16;;;23.91;21.49
21826;BME280;11075;47.944;11.776;2022-09-01T11:52:55;94910.69;;;23.87;22.09
21826;BME280;11075;47.944;11.776;2022-09-01T11:55:44;94913.94;;;25.56;21.50
21826;BME280;11075;47.944;11.776;2022-09-01T11:58:31;94934.50;;;27.04;19.72
21826;BME280;11075;47.944;11.776;2022-09-01T12:01:36;94964.25;;;28.01;18.63
21826;BME280;11075;47.944;11.776;2022-09-01T12:04:23;94941.13;;;27.95;18.76
21826;BME280;11075;47.944;11.776;2022-09-01T12:06:55;94922.22;;;25.72;20.71
21826;BME280;11075;47.944;11.776;2022-09-01T12:09:35;94952.13;;;29.51;17.90
21826;BME280;11075;47.944;11.776;2022-09-01T12:12:05;94925.25;;;23.06;21.64
21826;BME280;11075;47.944;11.776;2022-09-01T12:14:33;94908.09;;;24.42;21.68
21826;BME280;11075;47.944;11.776;2022-09-01T12:17:20;94921.28;;;23.61;21.73
21826;BME280;11075;47.944;11.776;2022-09-01T12:19:47;94908.94;;;24.39;21.52
21826;BME280;11075;47.944;11.776;2022-09-01T12:22:17;94919.53;;;23.98;21.26
21826;BME280;11075;47.944;11.776;2022-09-01T12:24:49;94935.09;;;25.43;19.97
21826;BME280;11075;47.944;11.776;2022-09-01T12:27:16;94906.81;;;24.27;22.04
21826;BME280;11075;47.944;11.776;2022-09-01T12:29:44;94916.91;;;23.13;22.09
21826;BME280;11075;47.944;11.776;2022-09-01T12:32:13;94911.50;;;24.70;21.08
21826;BME280;11075;47.944;11.776;2022-09-01T12:34:44;94926.88;;;25.07;20.66
21826;BME280;11075;47.944;11.776;2022-09-01T12:39:44;94940.06;;;26.46;20.07
21826;BME280;11075;47.944;11.776;2022-09-01T12:42:32;94913.47;;;24.89;21.17
21826;BME280;11075;47.944;11.776;2022-09-01T12:45:08;94881.94;;;24.11;22.28
21826;BME280;11075;47.944;11.776;2022-09-01T12:50:05;94928.66;;;25.82;19.93
21826;BME280;11075;47.944;11.776;2022-09-01T12:52:35;94926.34;;;26.42;19.75
21826;BME280;11075;47.944;11.776;2022-09-01T12:55:21;94931.53;;;29.00;18.55
21826;BME280;11075;47.944;11.776;2022-09-01T12:58:09;94894.91;;;24.10;21.66
21826;BME280;11075;47.944;11.776;2022-09-01T13:01:07;94923.16;;;25.82;19.72
21826;BME280;11075;47.944;11.776;2022-09-01T13:03:42;94916.03;;;27.13;19.32
21826;BME280;11075;47.944;11.776;2022-09-01T13:06:29;94928.63;;;23.71;20.14
21826;BME280;11075;47.944;11.776;2022-09-01T13:08:55;94937.00;;;26.27;18.60
21826;BME280;11075;47.944;11.776;2022-09-01T13:11:22;94934.25;;;25.46;19.48
21826;BME280;11075;47.944;11.776;2022-09-01T13:13:49;94928.50;;;26.51;19.07
21826;BME280;11075;47.944;11.776;2022-09-01T13:16:16;94953.66;;;28.34;17.55
21826;BME280;11075;47.944;11.776;2022-09-01T13:18:43;94955.34;;;28.32;17.32
21826;BME280;11075;47.944;11.776;2022-09-01T13:21:32;94946.91;;;26.41;18.51
21826;BME280;11075;47.944;11.776;2022-09-01T13:24:01;94949.91;;;28.28;17.01
21826;BME280;11075;47.944;11.776;2022-09-01T13:26:30;94941.75;;;27.65;17.95
21826;BME280;11075;47.944;11.776;2022-09-01T13:28:58;94932.75;;;27.60;18.41
21826;BME280;11075;47.944;11.776;2022-09-01T13:31:25;94935.81;;;29.23;17.69
21826;BME280;11075;47.944;11.776;2022-09-01T13:33:56;94921.41;;;28.40;18.48
21826;BME280;11075;47.944;11.776;2022-09-01T13:36:43;94905.81;;;26.43;19.30
21826;BME280;11075;47.944;11.776;2022-09-01T13:39:17;94912.09;;;26.15;19.17
21826;BME280;11075;47.944;11.776;2022-09-01T13:41:46;94912.59;;;27.60;18.41
21826;BME280;11075;47.944;11.776;2022-09-01T13:44:13;94951.72;;;28.78;16.76
21826;BME280;11075;47.944;11.776;2022-09-01T13:46:40;94934.03;;;25.21;18.83
21826;BME280;11075;47.944;11.776;2022-09-01T13:49:28;94910.13;;;25.83;19.44
21826;BME280;11075;47.944;11.776;2022-09-01T13:52:15;94895.78;;;26.20;19.61
21826;BME280;11075;47.944;11.776;2022-09-01T13:54:42;94899.25;;;26.66;18.57
21826;BME280;11075;47.944;11.776;2022-09-01T13:57:10;94910.94;;;26.57;18.60
21826;BME280;11075;47.944;11.776;2022-09-01T13:59:37;94899.78;;;25.02;19.17
21826;BME280;11075;47.944;11.776;2022-09-01T14:02:04;94900.81;;;27.21;18.11
21826;BME280;11075;47.944;11.776;2022-09-01T14:04:32;94890.38;;;24.24;20.68
21826;BME280;11075;47.944;11.776;2022-09-01T14:06:59;94887.84;;;27.44;19.23
21826;BME280;11075;47.944;11.776;2022-09-01T14:09:27;94890.56;;;26.39;18.67